sensor_id;sensor_type;location;lat;lon;timestamp;pressure;altitude;pressure_sealevel;temperature;humidity
10135;BME280;5107;48.850;8.924;2023-11-21T00:01:00;96184.38;;;7.13;94.16
10135;BME280;5107;48.850;8.924;2023-11-21T00:03:29;96174.72;;;7.14;94.29
10135;BME280;5107;48.850;8.924;2023-11-21T00:05:54;96177.03;;;7.17;95.15
10135;BME280;5107;48.850;8.924;2023-11-21T00:08:20;96177.84;;;7.17;94.99
10135;BME280;5107;48.850;8.924;2023-11-21T00:10:45;96174.88;;;7.20;94.79
10135;BME280;5107;48.850;8.924;2023-11-21T00:13:10;96165.44;;;7.19;95.01
10135;BME280;5107;48.850;8.924;2023-11-21T00:15:37;96159.53;;;7.17;94.97
10135;BME280;5107;48.850;8.924;2023-11-21T00:18:03;96165.59;;;7.18;95.57
10135;BME280;5107;48.850;8.924;2023-11-21T00:20:31;96163.44;;;7.21;95.50
10135;BME280;5107;48.850;8.924;2023-11-21T00:22:57;96163.13;;;7.24;95.77
10135;BME280;5107;48.850;8.924;2023-11-21T00:25:22;96167.03;;;7.29;95.58
10135;BME280;5107;48.850;8.924;2023-11-21T00:27:47;96166.72;;;7.23;95.94
10135;BME280;5107;48.850;8.924;2023-11-21T00:30:13;96170.81;;;7.26;95.68
10135;BME280;5107;48.850;8.924;2023-11-21T00:32:39;96173.28;;;7.28;95.86
10135;BME280;5107;48.850;8.924;2023-11-21T00:35:05;96176.22;;;7.33;95.94
10135;BME280;5107;48.850;8.924;2023-11-21T00:37:31;96171.47;;;7.36;96.27
10135;BME280;5107;48.850;8.924;2023-11-21T00:39:57;96172.47;;;7.43;95.73
10135;BME280;5107;48.850;8.924;2023-11-21T00:42:22;96164.75;;;7.50;95.17
10135;BME280;5107;48.850;8.924;2023-11-21T00:44:48;96169.03;;;7.51;94.78
10135;BME280;5107;48.850;8.924;2023-11-21T00:47:13;96175.91;;;7.52;95.30
10135;BME280;5107;48.850;8.924;2023-11-21T00:49:39;96174.72;;;7.46;95.40
10135;BME280;5107;48.850;8.924;2023-11-21T00:52:04;96177.69;;;7.51;96.68
10135;BME280;5107;48.850;8.924;2023-11-21T00:54:30;96178.31;;;7.53;96.95
10135;BME280;5107;48.850;8.924;2023-11-21T00:56:55;96169.03;;;7.59;96.91
10135;BME280;5107;48.850;8.924;2023-11-21T00:59:21;96172.94;;;7.63;96.77
10135;BME280;5107;48.850;8.924;2023-11-21T01:01:48;96174.91;;;7.61;97.10
10135;BME280;5107;48.850;8.924;2023-11-21T01:04:13;96171.78;;;7.57;97.42
10135;BME280;5107;48.850;8.924;2023-11-21T01:06:38;96175.56;;;7.55;97.73
10135;BME280;5107;48.850;8.924;2023-11-21T01:09:04;96173.91;;;7.54;98.12
10135;BME280;5107;48.850;8.924;2023-11-21T01:11:38;96176.53;;;7.46;98.61
10135;BME280;5107;48.850;8.924;2023-11-21T01:14:04;96179.50;;;7.43;99.04
10135;BME280;5107;48.850;8.924;2023-11-21T01:16:30;96173.75;;;7.47;98.88
10135;BME280;5107;48.850;8.924;2023-11-21T01:18:58;96172.31;;;7.53;98.57
10135;BME280;5107;48.850;8.924;2023-11-21T01:21:24;96166.72;;;7.56;98.34
10135;BME280;5107;48.850;8.924;2023-11-21T01:23:49;96170.66;;;7.60;98.12
10135;BME280;5107;48.850;8.924;2023-11-21T01:26:14;96165.22;;;7.61;98.06
10135;BME280;5107;48.850;8.924;2023-11-21T01:28:40;96170.31;;;7.63;97.47
10135;BME280;5107;48.850;8.924;2023-11-21T01:31:05;96167.84;;;7.61;97.24
10135;BME280;5107;48.850;8.924;2023-11-21T01:33:32;96174.56;;;7.64;97.43
10135;BME280;5107;48.850;8.924;2023-11-21T01:35:58;96165.06;;;7.63;97.42
10135;BME280;5107;48.850;8.924;2023-11-21T01:38:25;96162.28;;;7.65;97.39
10135;BME280;5107;48.850;8.924;2023-11-21T01:40:50;96166.56;;;7.57;97.85
10135;BME280;5107;48.850;8.924;2023-11-21T01:43:16;96165.41;;;7.60;97.94
10135;BME280;5107;48.850;8.924;2023-11-21T01:45:42;96161.31;;;7.57;97.97
10135;BME280;5107;48.850;8.924;2023-11-21T01:48:08;96169.03;;;7.59;98.29
10135;BME280;5107;48.850;8.924;2023-11-21T01:50:33;96163.13;;;7.57;98.10
10135;BME280;5107;48.850;8.924;2023-11-21T01:52:59;96165.91;;;7.55;98.75
10135;BME280;5107;48.850;8.924;2023-11-21T01:55:26;96170.66;;;7.60;99.27
10135;BME280;5107;48.850;8.924;2023-11-21T01:57:52;96160.19;;;7.60;99.30
10135;BME280;5107;48.850;8.924;2023-11-21T02:00:18;96156.09;;;7.57;99.45
10135;BME280;5107;48.850;8.924;2023-11-21T02:02:48;96156.59;;;7.61;99.34
10135;BME280;5107;48.850;8.924;2023-11-21T02:05:17;96162.44;;;7.63;99.63
10135;BME280;5107;48.850;8.924;2023-11-21T02:07:44;96163.28;;;7.63;99.65
10135;BME280;5107;48.850;8.924;2023-11-21T02:10:10;96160.81;;;7.62;99.50
10135;BME280;5107;48.850;8.924;2023-11-21T02:12:39;96161.00;;;7.60;99.65
10135;BME280;5107;48.850;8.924;2023-11-21T02:15:05;96159.38;;;7.59;99.83
10135;BME280;5107;48.850;8.924;2023-11-21T02:17:41;96156.59;;;7.61;99.94
10135;BME280;5107;48.850;8.924;2023-11-21T02:20:07;96156.25;;;7.64;99.82
10135;BME280;5107;48.850;8.924;2023-11-21T02:22:35;96167.06;;;7.69;99.71
10135;BME280;5107;48.850;8.924;2023-11-21T02:25:04;96162.28;;;7.73;99.21
10135;BME280;5107;48.850;8.924;2023-11-21T02:27:29;96163.44;;;7.78;99.22
10135;BME280;5107;48.850;8.924;2023-11-21T02:29:55;96164.88;;;7.81;98.96
10135;BME280;5107;48.850;8.924;2023-11-21T02:32:20;96166.06;;;7.86;98.72
10135;BME280;5107;48.850;8.924;2023-11-21T02:34:48;96165.53;;;7.91;98.75
10135;BME280;5107;48.850;8.924;2023-11-21T02:37:13;96166.84;;;7.87;98.58
10135;BME280;5107;48.850;8.924;2023-11-21T02:39:39;96151.97;;;7.71;99.06
10135;BME280;5107;48.850;8.924;2023-11-21T02:42:04;96156.88;;;7.74;99.69
10135;BME280;5107;48.850;8.924;2023-11-21T02:44:29;96154.28;;;7.66;99.70
10135;BME280;5107;48.850;8.924;2023-11-21T02:46:55;96156.59;;;7.61;100.00
10135;BME280;5107;48.850;8.924;2023-11-21T02:49:22;96147.72;;;7.62;100.00
10135;BME280;5107;48.850;8.924;2023-11-21T02:51:48;96142.50;;;7.62;100.00
10135;BME280;5107;48.850;8.924;2023-11-21T02:54:13;96140.06;;;7.60;100.00
10135;BME280;5107;48.850;8.924;2023-11-21T02:56:39;96146.75;;;7.63;100.00
10135;BME280;5107;48.850;8.924;2023-11-21T02:59:05;96150.53;;;7.60;100.00
10135;BME280;5107;48.850;8.924;2023-11-21T03:01:30;96148.06;;;7.59;100.00
10135;BME280;5107;48.850;8.924;2023-11-21T03:03:56;96147.09;;;7.60;100.00
10135;BME280;5107;48.850;8.924;2023-11-21T03:06:22;96149.53;;;7.61;100.00
10135;BME280;5107;48.850;8.924;2023-11-21T03:08:48;96143.00;;;7.66;100.00
10135;BME280;5107;48.850;8.924;2023-11-21T03:11:14;96152.78;;;7.72;100.00
10135;BME280;5107;48.850;8.924;2023-11-21T03:13:40;96138.88;;;7.71;99.67
10135;BME280;5107;48.850;8.924;2023-11-21T03:16:10;96148.06;;;7.75;99.69
10135;BME280;5107;48.850;8.924;2023-11-21T03:18:38;96147.72;;;7.78;99.40
10135;BME280;5107;48.850;8.924;2023-11-21T03:21:05;96152.63;;;7.73;99.38
10135;BME280;5107;48.850;8.924;2023-11-21T03:23:31;96154.09;;;7.76;99.14
10135;BME280;5107;48.850;8.924;2023-11-21T03:25:56;96160.00;;;7.78;99.57
10135;BME280;5107;48.850;8.924;2023-11-21T03:28:21;96151.31;;;7.85;99.52
10135;BME280;5107;48.850;8.924;2023-11-21T03:30:47;96156.38;;;7.79;98.97
10135;BME280;5107;48.850;8.924;2023-11-21T03:33:12;96159.81;;;7.79;99.20
10135;BME280;5107;48.850;8.924;2023-11-21T03:35:37;96163.09;;;7.81;99.68
10135;BME280;5107;48.850;8.924;2023-11-21T03:38:03;96156.56;;;7.85;99.35
10135;BME280;5107;48.850;8.924;2023-11-21T03:40:29;96159.78;;;7.87;99.12
10135;BME280;5107;48.850;8.924;2023-11-21T03:42:54;96155.22;;;7.89;98.97
10135;BME280;5107;48.850;8.924;2023-11-21T03:45:20;96159.16;;;7.93;99.10
10135;BME280;5107;48.850;8.924;2023-11-21T03:47:46;96158.97;;;8.03;99.28
10135;BME280;5107;48.850;8.924;2023-11-21T03:50:11;96166.34;;;7.99;99.91
10135;BME280;5107;48.850;8.924;2023-11-21T03:52:37;96167.13;;;8.08;99.99
10135;BME280;5107;48.850;8.924;2023-11-21T03:55:02;96170.03;;;8.21;98.02
10135;BME280;5107;48.850;8.924;2023-11-21T03:57:28;96166.28;;;8.24;97.38
10135;BME280;5107;48.850;8.924;2023-11-21T03:59:53;96184.13;;;8.28;97.37
10135;BME280;5107;48.850;8.924;2023-11-21T04:02:19;96174.28;;;8.22;96.47
10135;BME280;5107;48.850;8.924;2023-11-21T04:04:44;96174.16;;;8.16;96.94
10135;BME280;5107;48.850;8.924;2023-11-21T04:07:10;96169.25;;;8.13;97.25
10135;BME280;5107;48.850;8.924;2023-11-21T04:09:36;96176.66;;;8.01;97.36
10135;BME280;5107;48.850;8.924;2023-11-21T04:12:01;96170.63;;;7.92;98.18
10135;BME280;5107;48.850;8.924;2023-11-21T04:14:27;96178.63;;;7.91;98.17
10135;BME280;5107;48.850;8.924;2023-11-21T04:16:52;96185.97;;;7.95;98.75
10135;BME280;5107;48.850;8.924;2023-11-21T04:19:18;96185.19;;;7.95;98.72
10135;BME280;5107;48.850;8.924;2023-11-21T04:21:44;96181.56;;;7.96;98.11
10135;BME280;5107;48.850;8.924;2023-11-21T04:24:09;96174.88;;;7.93;98.17
10135;BME280;5107;48.850;8.924;2023-11-21T04:26:35;96183.53;;;7.94;98.16
10135;BME280;5107;48.850;8.924;2023-11-21T04:29:01;96186.66;;;7.89;97.85
10135;BME280;5107;48.850;8.924;2023-11-21T04:31:26;96178.13;;;7.87;98.19
10135;BME280;5107;48.850;8.924;2023-11-21T04:33:52;96169.66;;;7.85;97.90
10135;BME280;5107;48.850;8.924;2023-11-21T04:36:17;96174.88;;;7.85;97.89
10135;BME280;5107;48.850;8.924;2023-11-21T04:38:42;96183.72;;;7.84;97.78
10135;BME280;5107;48.850;8.924;2023-11-21T04:41:09;96190.41;;;7.87;97.89
10135;BME280;5107;48.850;8.924;2023-11-21T04:43:34;96185.53;;;7.84;97.19
10135;BME280;5107;48.850;8.924;2023-11-21T04:46:00;96185.03;;;7.80;97.31
10135;BME280;5107;48.850;8.924;2023-11-21T04:48:27;96188.31;;;7.74;97.71
10135;BME280;5107;48.850;8.924;2023-11-21T04:50:52;96189.28;;;7.81;97.71
10135;BME280;5107;48.850;8.924;2023-11-21T04:53:17;96177.84;;;7.74;96.87
10135;BME280;5107;48.850;8.924;2023-11-21T04:55:43;96174.72;;;7.71;96.98
10135;BME280;5107;48.850;8.924;2023-11-21T04:58:09;96176.84;;;7.75;97.23
10135;BME280;5107;48.850;8.924;2023-11-21T05:00:35;96178.50;;;7.76;97.08
10135;BME280;5107;48.850;8.924;2023-11-21T05:03:02;96178.50;;;7.76;96.84
10135;BME280;5107;48.850;8.924;2023-11-21T05:05:27;96182.41;;;7.72;96.60
10135;BME280;5107;48.850;8.924;2023-11-21T05:07:52;96184.88;;;7.74;96.78
10135;BME280;5107;48.850;8.924;2023-11-21T05:10:19;96185.69;;;7.74;96.35
10135;BME280;5107;48.850;8.924;2023-11-21T05:12:44;96189.78;;;7.77;96.18
10135;BME280;5107;48.850;8.924;2023-11-21T05:15:14;96186.34;;;7.68;96.21
10135;BME280;5107;48.850;8.924;2023-11-21T05:17:40;96200.91;;;7.79;95.82
10135;BME280;5107;48.850;8.924;2023-11-21T05:20:13;96189.63;;;7.78;95.86
10135;BME280;5107;48.850;8.924;2023-11-21T05:22:42;96204.34;;;7.79;95.57
10135;BME280;5107;48.850;8.924;2023-11-21T05:25:07;96201.72;;;7.63;96.17
10135;BME280;5107;48.850;8.924;2023-11-21T05:27:33;96212.19;;;7.63;96.10
10135;BME280;5107;48.850;8.924;2023-11-21T05:30:04;96203.22;;;7.57;96.50
10135;BME280;5107;48.850;8.924;2023-11-21T05:32:37;96207.63;;;7.57;96.73
10135;BME280;5107;48.850;8.924;2023-11-21T05:35:02;96221.53;;;7.66;96.63
10135;BME280;5107;48.850;8.924;2023-11-21T05:37:27;96217.44;;;7.71;96.46
10135;BME280;5107;48.850;8.924;2023-11-21T05:39:53;96224.16;;;7.74;96.27
10135;BME280;5107;48.850;8.924;2023-11-21T05:42:22;96219.41;;;7.69;96.13
10135;BME280;5107;48.850;8.924;2023-11-21T05:44:48;96220.56;;;7.58;97.18
10135;BME280;5107;48.850;8.924;2023-11-21T05:47:14;96231.50;;;7.62;97.28
10135;BME280;5107;48.850;8.924;2023-11-21T05:49:39;96224.00;;;7.51;97.78
10135;BME280;5107;48.850;8.924;2023-11-21T05:52:05;96229.84;;;7.29;96.75
10135;BME280;5107;48.850;8.924;2023-11-21T05:54:31;96229.81;;;7.20;98.64
10135;BME280;5107;48.850;8.924;2023-11-21T05:56:56;96233.09;;;7.14;99.43
10135;BME280;5107;48.850;8.924;2023-11-21T05:59:22;96239.63;;;7.10;99.54
10135;BME280;5107;48.850;8.924;2023-11-21T06:01:47;96234.38;;;7.02;99.19
10135;BME280;5107;48.850;8.924;2023-11-21T06:04:13;96235.34;;;7.01;99.56
10135;BME280;5107;48.850;8.924;2023-11-21T06:06:38;96239.75;;;6.93;98.55
10135;BME280;5107;48.850;8.924;2023-11-21T06:09:04;96235.13;;;6.86;99.18
10135;BME280;5107;48.850;8.924;2023-11-21T06:11:31;96251.16;;;6.83;99.73
10135;BME280;5107;48.850;8.924;2023-11-21T06:13:57;96251.63;;;6.79;100.00
10135;BME280;5107;48.850;8.924;2023-11-21T06:16:23;96252.44;;;6.79;100.00
10135;BME280;5107;48.850;8.924;2023-11-21T06:18:48;96251.16;;;6.83;100.00
10135;BME280;5107;48.850;8.924;2023-11-21T06:21:14;96251.63;;;6.79;100.00
10135;BME280;5107;48.850;8.924;2023-11-21T06:23:41;96254.03;;;6.72;100.00
10135;BME280;5107;48.850;8.924;2023-11-21T06:26:07;96257.97;;;6.68;100.00
10135;BME280;5107;48.850;8.924;2023-11-21T06:28:34;96251.41;;;6.64;100.00
10135;BME280;5107;48.850;8.924;2023-11-21T06:30:59;96249.91;;;6.62;100.00
10135;BME280;5107;48.850;8.924;2023-11-21T06:33:30;96254.50;;;6.60;100.00
10135;BME280;5107;48.850;8.924;2023-11-21T06:35:56;96257.72;;;6.54;100.00
10135;BME280;5107;48.850;8.924;2023-11-21T06:38:21;96259.69;;;6.52;100.00
10135;BME280;5107;48.850;8.924;2023-11-21T06:40:49;96261.13;;;6.54;100.00
10135;BME280;5107;48.850;8.924;2023-11-21T06:43:15;96272.25;;;6.56;100.00
10135;BME280;5107;48.850;8.924;2023-11-21T06:45:40;96274.56;;;6.59;100.00
10135;BME280;5107;48.850;8.924;2023-11-21T06:48:06;96277.28;;;6.75;100.00
10135;BME280;5107;48.850;8.924;2023-11-21T06:50:31;96275.00;;;6.80;100.00
10135;BME280;5107;48.850;8.924;2023-11-21T06:52:57;96283.66;;;6.81;100.00
10135;BME280;5107;48.850;8.924;2023-11-21T06:55:22;96293.25;;;7.14;100.00
10135;BME280;5107;48.850;8.924;2023-11-21T06:57:47;96286.69;;;7.02;100.00
10135;BME280;5107;48.850;8.924;2023-11-21T07:00:15;96290.28;;;7.01;100.00
10135;BME280;5107;48.850;8.924;2023-11-21T07:02:42;96293.53;;;7.03;100.00
10135;BME280;5107;48.850;8.924;2023-11-21T07:05:08;96299.47;;;7.13;100.00
10135;BME280;5107;48.850;8.924;2023-11-21T07:07:34;96291.63;;;7.21;100.00
10135;BME280;5107;48.850;8.924;2023-11-21T07:10:01;96301.94;;;7.23;100.00
10135;BME280;5107;48.850;8.924;2023-11-21T07:12:28;96299.19;;;7.24;100.00
10135;BME280;5107;48.850;8.924;2023-11-21T07:14:54;96302.34;;;7.44;100.00
10135;BME280;5107;48.850;8.924;2023-11-21T07:17:19;96299.25;;;7.49;100.00
10135;BME280;5107;48.850;8.924;2023-11-21T07:19:44;96305.13;;;7.51;100.00
10135;BME280;5107;48.850;8.924;2023-11-21T07:22:10;96314.63;;;7.52;100.00
10135;BME280;5107;48.850;8.924;2023-11-21T07:24:36;96317.25;;;7.52;100.00
10135;BME280;5107;48.850;8.924;2023-11-21T07:27:02;96314.81;;;7.58;100.00
10135;BME280;5107;48.850;8.924;2023-11-21T07:29:29;96326.41;;;7.64;100.00
10135;BME280;5107;48.850;8.924;2023-11-21T07:31:55;96329.69;;;7.66;100.00
10135;BME280;5107;48.850;8.924;2023-11-21T07:34:21;96340.03;;;7.68;100.00
10135;BME280;5107;48.850;8.924;2023-11-21T07:36:46;96328.72;;;7.67;100.00
10135;BME280;5107;48.850;8.924;2023-11-21T07:39:12;96330.53;;;7.67;100.00
10135;BME280;5107;48.850;8.924;2023-11-21T07:41:37;96333.97;;;7.67;100.00
10135;BME280;5107;48.850;8.924;2023-11-21T07:44:10;96333.00;;;7.68;100.00
10135;BME280;5107;48.850;8.924;2023-11-21T07:46:35;96335.94;;;7.73;100.00
10135;BME280;5107;48.850;8.924;2023-11-21T07:49:00;96341.84;;;7.75;100.00
10135;BME280;5107;48.850;8.924;2023-11-21T07:51:25;96338.69;;;7.72;100.00
10135;BME280;5107;48.850;8.924;2023-11-21T07:53:51;96341.16;;;7.65;100.00
10135;BME280;5107;48.850;8.924;2023-11-21T07:56:17;96342.47;;;7.61;100.00
10135;BME280;5107;48.850;8.924;2023-11-21T07:58:43;96345.25;;;7.68;100.00
10135;BME280;5107;48.850;8.924;2023-11-21T08:01:09;96353.25;;;7.66;100.00
10135;BME280;5107;48.850;8.924;2023-11-21T08:03:34;96355.56;;;7.61;100.00
10135;BME280;5107;48.850;8.924;2023-11-21T08:06:00;96346.38;;;7.57;100.00
10135;BME280;5107;48.850;8.924;2023-11-21T08:08:25;96350.94;;;7.55;100.00
10135;BME280;5107;48.850;8.924;2023-11-21T08:10:51;96351.28;;;7.60;100.00
10135;BME280;5107;48.850;8.924;2023-11-21T08:13:25;96358.50;;;7.66;100.00
10135;BME280;5107;48.850;8.924;2023-11-21T08:15:53;96353.28;;;7.74;100.00
10135;BME280;5107;48.850;8.924;2023-11-21T08:18:19;96366.22;;;7.84;100.00
10135;BME280;5107;48.850;8.924;2023-11-21T08:20:44;96359.53;;;7.97;100.00
10135;BME280;5107;48.850;8.924;2023-11-21T08:23:13;96361.34;;;8.05;99.43
10135;BME280;5107;48.850;8.924;2023-11-21T08:25:40;96358.06;;;7.95;99.14
10135;BME280;5107;48.850;8.924;2023-11-21T08:28:07;96366.72;;;7.87;99.93
10135;BME280;5107;48.850;8.924;2023-11-21T08:30:32;96369.16;;;7.81;100.00
10135;BME280;5107;48.850;8.924;2023-11-21T08:32:58;96355.91;;;7.74;100.00
10135;BME280;5107;48.850;8.924;2023-11-21T08:35:24;96362.41;;;7.70;100.00
10135;BME280;5107;48.850;8.924;2023-11-21T08:37:52;96366.19;;;7.68;100.00
10135;BME280;5107;48.850;8.924;2023-11-21T08:40:21;96362.13;;;7.73;100.00
10135;BME280;5107;48.850;8.924;2023-11-21T08:42:47;96364.06;;;7.79;100.00
10135;BME280;5107;48.850;8.924;2023-11-21T08:45:15;96365.09;;;7.78;100.00
10135;BME280;5107;48.850;8.924;2023-11-21T08:47:42;96370.13;;;7.80;100.00
10135;BME280;5107;48.850;8.924;2023-11-21T08:50:09;96372.94;;;7.78;100.00
10135;BME280;5107;48.850;8.924;2023-11-21T08:52:34;96380.97;;;7.85;100.00
10135;BME280;5107;48.850;8.924;2023-11-21T08:55:02;96381.81;;;7.93;100.00
10135;BME280;5107;48.850;8.924;2023-11-21T08:57:36;96383.94;;;7.98;100.00
10135;BME280;5107;48.850;8.924;2023-11-21T09:00:03;96386.09;;;8.11;100.00
10135;BME280;5107;48.850;8.924;2023-11-21T09:02:30;96382.13;;;8.15;100.00
10135;BME280;5107;48.850;8.924;2023-11-21T09:04:59;96388.53;;;8.20;100.00
10135;BME280;5107;48.850;8.924;2023-11-21T09:07:28;96384.78;;;8.55;99.41
10135;BME280;5107;48.850;8.924;2023-11-21T09:09:53;96389.41;;;8.45;99.54
10135;BME280;5107;48.850;8.924;2023-11-21T09:12:20;96395.94;;;8.65;99.14
10135;BME280;5107;48.850;8.924;2023-11-21T09:14:46;96394.28;;;8.56;98.88
10135;BME280;5107;48.850;8.924;2023-11-21T09:17:11;96394.66;;;8.53;99.56
10135;BME280;5107;48.850;8.924;2023-11-21T09:19:43;96395.94;;;8.49;99.55
10135;BME280;5107;48.850;8.924;2023-11-21T09:22:17;96396.91;;;8.64;98.09
10135;BME280;5107;48.850;8.924;2023-11-21T09:24:43;96410.53;;;8.60;97.90
10135;BME280;5107;48.850;8.924;2023-11-21T09:27:09;96413.31;;;8.58;98.13
10135;BME280;5107;48.850;8.924;2023-11-21T09:29:35;96416.59;;;8.52;98.36
10135;BME280;5107;48.850;8.924;2023-11-21T09:32:00;96420.53;;;8.56;99.37
10135;BME280;5107;48.850;8.924;2023-11-21T09:34:26;96423.47;;;8.61;98.85
10135;BME280;5107;48.850;8.924;2023-11-21T09:36:51;96429.22;;;8.57;99.41
10135;BME280;5107;48.850;8.924;2023-11-21T09:39:17;96429.22;;;8.57;99.83
10135;BME280;5107;48.850;8.924;2023-11-21T09:41:52;96435.94;;;8.59;100.00
10135;BME280;5107;48.850;8.924;2023-11-21T09:44:45;96435.94;;;8.59;99.58
10135;BME280;5107;48.850;8.924;2023-11-21T09:47:15;96432.97;;;8.70;98.73
10135;BME280;5107;48.850;8.924;2023-11-21T09:49:44;96435.75;;;8.93;98.35
10135;BME280;5107;48.850;8.924;2023-11-21T09:52:22;96436.88;;;8.99;97.95
10135;BME280;5107;48.850;8.924;2023-11-21T09:54:51;96440.13;;;9.17;96.58
10135;BME280;5107;48.850;8.924;2023-11-21T09:57:19;96437.47;;;9.33;95.98
10135;BME280;5107;48.850;8.924;2023-11-21T09:59:45;96436.47;;;9.34;95.98
10135;BME280;5107;48.850;8.924;2023-11-21T10:02:11;96432.31;;;9.48;95.93
10135;BME280;5107;48.850;8.924;2023-11-21T10:04:38;96435.25;;;9.53;94.80
10135;BME280;5107;48.850;8.924;2023-11-21T10:07:05;96435.41;;;9.60;95.05
10135;BME280;5107;48.850;8.924;2023-11-21T10:09:36;96433.59;;;9.60;94.29
10135;BME280;5107;48.850;8.924;2023-11-21T10:12:03;96425.88;;;9.59;93.96
10135;BME280;5107;48.850;8.924;2023-11-21T10:14:34;96435.72;;;9.57;94.19
10135;BME280;5107;48.850;8.924;2023-11-21T10:17:00;96441.84;;;9.49;93.93
10135;BME280;5107;48.850;8.924;2023-11-21T10:19:26;96438.72;;;9.54;94.13
10135;BME280;5107;48.850;8.924;2023-11-21T10:21:52;96438.19;;;9.58;93.93
10135;BME280;5107;48.850;8.924;2023-11-21T10:24:19;96439.34;;;9.56;94.06
10135;BME280;5107;48.850;8.924;2023-11-21T10:26:45;96442.28;;;9.61;94.04
10135;BME280;5107;48.850;8.924;2023-11-21T10:29:14;96439.63;;;9.69;94.20
10135;BME280;5107;48.850;8.924;2023-11-21T10:31:41;96440.25;;;9.79;94.12
10135;BME280;5107;48.850;8.924;2023-11-21T10:34:18;96437.59;;;9.87;93.32
10135;BME280;5107;48.850;8.924;2023-11-21T10:36:45;96444.66;;;9.86;93.09
10135;BME280;5107;48.850;8.924;2023-11-21T10:39:17;96447.44;;;9.85;93.60
10135;BME280;5107;48.850;8.924;2023-11-21T10:41:47;96447.91;;;9.88;93.69
10135;BME280;5107;48.850;8.924;2023-11-21T10:44:17;96446.25;;;9.87;93.62
10135;BME280;5107;48.850;8.924;2023-11-21T10:46:48;96447.47;;;9.77;93.21
10135;BME280;5107;48.850;8.924;2023-11-21T10:49:17;96441.41;;;9.76;93.43
10135;BME280;5107;48.850;8.924;2023-11-21T10:51:44;96450.28;;;9.75;93.64
10135;BME280;5107;48.850;8.924;2023-11-21T10:54:09;96449.16;;;9.70;94.29
10135;BME280;5107;48.850;8.924;2023-11-21T10:56:35;96447.31;;;9.78;94.83
10135;BME280;5107;48.850;8.924;2023-11-21T10:59:10;96447.72;;;9.90;94.01
10135;BME280;5107;48.850;8.924;2023-11-21T11:01:44;96451.97;;;9.99;94.18
10135;BME280;5107;48.850;8.924;2023-11-21T11:04:12;96450.91;;;10.08;93.85
10135;BME280;5107;48.850;8.924;2023-11-21T11:06:46;96456.44;;;10.21;93.18
10135;BME280;5107;48.850;8.924;2023-11-21T11:09:17;96456.66;;;10.12;92.63
10135;BME280;5107;48.850;8.924;2023-11-21T11:11:43;96451.75;;;10.09;91.62
10135;BME280;5107;48.850;8.924;2023-11-21T11:14:13;96455.19;;;10.09;92.52
10135;BME280;5107;48.850;8.924;2023-11-21T11:16:40;96453.25;;;10.03;92.43
10135;BME280;5107;48.850;8.924;2023-11-21T11:19:07;96461.19;;;9.95;92.20
10135;BME280;5107;48.850;8.924;2023-11-21T11:21:48;96459.91;;;9.83;93.42
10135;BME280;5107;48.850;8.924;2023-11-21T11:27:21;96461.34;;;9.94;93.67
10135;BME280;5107;48.850;8.924;2023-11-21T11:30:16;96464.47;;;9.89;93.58
10135;BME280;5107;48.850;8.924;2023-11-21T11:32:58;96466.03;;;10.06;93.59
10135;BME280;5107;48.850;8.924;2023-11-21T11:35:33;96465.69;;;10.17;93.80
10135;BME280;5107;48.850;8.924;2023-11-21T11:38:01;96462.56;;;10.45;92.22
10135;BME280;5107;48.850;8.924;2023-11-21T11:40:39;96476.09;;;10.34;91.20
10135;BME280;5107;48.850;8.924;2023-11-21T11:43:06;96473.03;;;10.53;91.09
10135;BME280;5107;48.850;8.924;2023-11-21T11:45:33;96472.31;;;10.59;91.06
10135;BME280;5107;48.850;8.924;2023-11-21T11:48:00;96477.88;;;10.64;90.89
10135;BME280;5107;48.850;8.924;2023-11-21T11:50:25;96474.13;;;10.58;91.18
10135;BME280;5107;48.850;8.924;2023-11-21T11:52:57;96472.38;;;10.51;90.73
10135;BME280;5107;48.850;8.924;2023-11-21T11:55:36;96460.22;;;10.50;89.95
10135;BME280;5107;48.850;8.924;2023-11-21T11:58:05;96466.78;;;10.54;89.62
10135;BME280;5107;48.850;8.924;2023-11-21T12:00:34;96467.28;;;10.26;89.27
10135;BME280;5107;48.850;8.924;2023-11-21T12:03:04;96465.59;;;10.34;90.22
10135;BME280;5107;48.850;8.924;2023-11-21T12:05:32;96463.19;;;10.24;89.87
10135;BME280;5107;48.850;8.924;2023-11-21T12:08:04;96467.03;;;10.05;90.62
10135;BME280;5107;48.850;8.924;2023-11-21T12:10:32;96469.63;;;10.13;91.93
10135;BME280;5107;48.850;8.924;2023-11-21T12:13:02;96477.69;;;10.12;92.08
10135;BME280;5107;48.850;8.924;2023-11-21T12:15:28;96479.66;;;10.18;93.04
10135;BME280;5107;48.850;8.924;2023-11-21T12:17:55;96481.09;;;10.29;92.91
10135;BME280;5107;48.850;8.924;2023-11-21T12:20:22;96480.56;;;10.33;92.59
10135;BME280;5107;48.850;8.924;2023-11-21T12:22:55;96478.69;;;10.42;91.71
10135;BME280;5107;48.850;8.924;2023-11-21T12:25:26;96480.94;;;10.53;91.34
10135;BME280;5107;48.850;8.924;2023-11-21T12:27:55;96478.06;;;10.62;91.41
10135;BME280;5107;48.850;8.924;2023-11-21T12:30:22;96478.09;;;10.77;90.88
10135;BME280;5107;48.850;8.924;2023-11-21T12:32:58;96485.94;;;10.85;89.26
10135;BME280;5107;48.850;8.924;2023-11-21T12:35:25;96487.59;;;10.86;89.09
10135;BME280;5107;48.850;8.924;2023-11-21T12:37:52;96489.31;;;10.94;88.74
10135;BME280;5107;48.850;8.924;2023-11-21T12:40:19;96491.44;;;11.13;88.17
10135;BME280;5107;48.850;8.924;2023-11-21T12:42:45;96491.66;;;11.26;87.18
10135;BME280;5107;48.850;8.924;2023-11-21T12:47:43;96494.00;;;11.88;84.87
10135;BME280;5107;48.850;8.924;2023-11-21T12:50:10;96488.84;;;11.72;83.11
10135;BME280;5107;48.850;8.924;2023-11-21T12:52:43;96496.38;;;11.16;84.87
10135;BME280;5107;48.850;8.924;2023-11-21T12:55:18;96498.13;;;10.86;86.14
10135;BME280;5107;48.850;8.924;2023-11-21T12:57:45;96495.47;;;10.63;87.83
10135;BME280;5107;48.850;8.924;2023-11-21T13:00:12;96502.53;;;10.40;88.37
10135;BME280;5107;48.850;8.924;2023-11-21T13:02:41;96505.91;;;10.26;89.04
10135;BME280;5107;48.850;8.924;2023-11-21T13:05:08;96510.69;;;10.22;89.78
10135;BME280;5107;48.850;8.924;2023-11-21T13:07:43;96507.81;;;10.01;90.42
10135;BME280;5107;48.850;8.924;2023-11-21T13:10:16;96511.28;;;9.94;90.88
10135;BME280;5107;48.850;8.924;2023-11-21T13:12:45;96509.84;;;9.83;91.82
10135;BME280;5107;48.850;8.924;2023-11-21T13:15:16;96519.06;;;9.71;92.78
10135;BME280;5107;48.850;8.924;2023-11-21T13:17:45;96521.56;;;9.64;93.05
10135;BME280;5107;48.850;8.924;2023-11-21T13:20:11;96519.25;;;9.69;92.59
10135;BME280;5107;48.850;8.924;2023-11-21T13:22:51;96525.03;;;9.57;93.04